Pila Airport

Jump to: basic info | weather | runways | comments

Related pages: nearby airports | nearby navaids | notams | map

Basic information (top)

Codes: EPPI
Location: lon 53.169998, lat 16.712500, elev 259 ft / 79 m msl
Status: small_airport

Weather (top)

Current conditions for Poznań-Ławica Airport 45nm (84km) S (rec'd 2014/07/29 20:30Z):

EPPO 292030Z 12001KT 9999 MIFG NSC 22/21 Q1007

Airport forecast for Poznań-Ławica Airport 45nm (84km) S (rec'd 2014/07/29 18:33Z):

TAF EPPO 291730Z 2918/3018 15005KT 9999 SCT033 
      TEMPO 2918/2924 BKN020CB PROB30 
      TEMPO 2918/2921 VRB15G30KT 5000 TSRA BKN013CB 
      TEMPO 3010/3018 VRB20G36KT 3000 TSRAGR BKN010CB

Runways (top)

03/21: 7,876 x 195 ft (2,401 x 59 m) — other (PEM) — lighted

Latest comments (top)

No comments yet for Pila Airport

More... (top)

See also NOTAMs and nearby airports and navaids, or visit the Pila Airport page at the main OurAirports website..